createdAt,value
2023-08-26T00:00:50.070Z,18.80
2023-08-26T00:03:17.023Z,18.80
2023-08-26T00:05:44.527Z,18.80
2023-08-26T00:08:11.393Z,18.80
2023-08-26T00:10:38.446Z,18.90
2023-08-26T00:13:05.348Z,18.80
2023-08-26T00:15:32.330Z,18.80
2023-08-26T00:17:59.793Z,18.80
2023-08-26T00:20:27.746Z,18.70
2023-08-26T00:22:54.633Z,18.60
2023-08-26T00:25:21.639Z,18.60
2023-08-26T00:27:48.565Z,18.60
2023-08-26T00:30:15.463Z,18.50
2023-08-26T00:32:42.753Z,18.50
2023-08-26T00:35:10.944Z,18.50
2023-08-26T00:37:37.838Z,18.50
2023-08-26T00:40:05.327Z,18.40
2023-08-26T00:42:38.464Z,18.40
2023-08-26T00:45:06.646Z,18.30
2023-08-26T00:47:33.633Z,18.30
2023-08-26T00:50:00.711Z,18.30
2023-08-26T00:52:28.702Z,18.30
2023-08-26T00:54:56.061Z,18.20
2023-08-26T00:57:23.166Z,18.20
2023-08-26T00:59:51.080Z,18.20
2023-08-26T01:02:18.055Z,18.20
2023-08-26T01:04:45.147Z,18.20
2023-08-26T01:07:13.873Z,18.20
2023-08-26T01:09:40.886Z,18.20
2023-08-26T01:12:58.338Z,18.20
2023-08-26T01:15:28.178Z,18.20
2023-08-26T01:17:56.134Z,18.20
2023-08-26T01:20:25.399Z,18.20
2023-08-26T01:22:56.926Z,18.20
2023-08-26T01:25:23.935Z,18.20
2023-08-26T01:27:50.780Z,18.30
2023-08-26T01:30:18.361Z,18.30
2023-08-26T01:32:54.257Z,18.20
2023-08-26T01:35:31.038Z,18.30
2023-08-26T01:37:59.942Z,18.30
2023-08-26T01:40:28.372Z,18.30
2023-08-26T01:42:56.637Z,18.30
2023-08-26T01:45:23.589Z,18.30
2023-08-26T01:47:50.511Z,18.30
2023-08-26T01:50:17.556Z,18.30
2023-08-26T01:52:44.434Z,18.30
2023-08-26T01:55:11.382Z,18.30
2023-08-26T01:57:39.034Z,18.30
2023-08-26T02:00:06.526Z,18.20
2023-08-26T02:02:42.390Z,18.20
2023-08-26T02:05:09.424Z,18.20
2023-08-26T02:07:36.275Z,18.20
2023-08-26T02:10:03.256Z,18.10
2023-08-26T02:12:33.238Z,18.10
2023-08-26T02:15:02.252Z,18.10
2023-08-26T02:17:30.917Z,18.10
2023-08-26T02:19:57.929Z,18.10
2023-08-26T02:22:24.801Z,18.10
2023-08-26T02:24:52.471Z,18.00
2023-08-26T02:27:19.352Z,18.00
2023-08-26T02:29:46.194Z,18.00
2023-08-26T02:32:14.214Z,17.90
2023-08-26T02:34:41.134Z,17.90
2023-08-26T02:37:08.049Z,17.90
2023-08-26T02:39:36.612Z,17.90
2023-08-26T02:42:03.599Z,17.90
2023-08-26T02:44:30.496Z,17.90
2023-08-26T02:46:57.452Z,17.90
2023-08-26T02:49:24.302Z,17.80
2023-08-26T02:51:51.156Z,17.80
2023-08-26T02:54:18.050Z,17.80
2023-08-26T02:56:44.937Z,17.80
2023-08-26T02:59:11.806Z,17.80
2023-08-26T03:01:40.567Z,17.70
2023-08-26T03:04:07.511Z,17.50
2023-08-26T03:06:34.498Z,17.40
2023-08-26T03:09:01.331Z,17.30
2023-08-26T03:11:28.349Z,17.10
2023-08-26T03:13:55.203Z,17.20
2023-08-26T03:16:22.175Z,17.00
2023-08-26T03:18:49.104Z,17.00
2023-08-26T03:21:15.962Z,16.90
2023-08-26T03:23:42.860Z,16.80
2023-08-26T03:26:09.847Z,16.80
2023-08-26T03:28:36.727Z,16.70
2023-08-26T03:31:07.783Z,16.70
2023-08-26T03:33:36.622Z,16.50
2023-08-26T03:36:07.438Z,16.50
2023-08-26T03:38:35.703Z,16.50
2023-08-26T03:41:04.584Z,16.30
2023-08-26T03:43:31.772Z,16.20
2023-08-26T03:45:59.945Z,16.10
2023-08-26T03:48:27.098Z,16.00
2023-08-26T03:50:55.992Z,15.90
2023-08-26T03:53:23.372Z,15.80
2023-08-26T03:55:50.408Z,15.70
2023-08-26T03:58:18.166Z,15.60
2023-08-26T04:00:45.122Z,15.50
2023-08-26T04:03:12.237Z,15.40
2023-08-26T04:05:40.763Z,15.40
2023-08-26T04:08:07.968Z,15.30
2023-08-26T04:10:34.873Z,15.30
2023-08-26T04:13:19.352Z,15.20
2023-08-26T04:15:46.332Z,15.10
2023-08-26T04:18:15.134Z,15.10
2023-08-26T04:20:43.765Z,15.00
2023-08-26T04:23:11.060Z,15.00
2023-08-26T04:25:41.519Z,14.90
2023-08-26T04:28:08.693Z,14.90
2023-08-26T04:30:37.417Z,14.80
2023-08-26T04:33:05.622Z,14.80
2023-08-26T04:35:33.138Z,14.70
2023-08-26T04:38:03.695Z,14.70
2023-08-26T04:40:30.686Z,14.70
2023-08-26T04:42:57.916Z,14.70
2023-08-26T04:45:25.772Z,14.60
2023-08-26T04:47:53.173Z,14.60
2023-08-26T04:50:20.144Z,14.50
2023-08-26T04:52:47.066Z,14.50
2023-08-26T04:55:14.086Z,14.40
2023-08-26T04:57:41.015Z,14.50
2023-08-26T05:00:12.044Z,14.40
2023-08-26T05:02:39.996Z,14.40
2023-08-26T05:05:09.267Z,14.40
2023-08-26T05:07:36.185Z,14.40
2023-08-26T05:10:04.747Z,14.40
2023-08-26T05:12:32.542Z,14.40
2023-08-26T05:14:59.471Z,14.40
2023-08-26T05:17:26.848Z,14.30
2023-08-26T05:19:53.789Z,14.30
2023-08-26T05:22:23.141Z,14.40
2023-08-26T05:24:50.080Z,14.40
2023-08-26T05:27:18.649Z,14.40
2023-08-26T05:29:45.859Z,14.40
2023-08-26T05:32:12.787Z,14.40
2023-08-26T05:34:39.793Z,14.40
2023-08-26T05:37:06.752Z,14.40
2023-08-26T05:39:33.605Z,14.40
2023-08-26T05:42:00.456Z,14.50
2023-08-26T05:44:27.402Z,14.40
2023-08-26T05:46:55.561Z,14.40
2023-08-26T05:49:22.611Z,14.50
2023-08-26T05:51:49.464Z,14.50
2023-08-26T05:54:16.835Z,14.40
2023-08-26T05:56:43.720Z,14.50
2023-08-26T05:59:10.596Z,14.50
2023-08-26T06:01:38.847Z,14.60
2023-08-26T06:04:06.464Z,14.50
2023-08-26T06:06:33.391Z,14.60
2023-08-26T06:09:00.350Z,14.60
2023-08-26T06:11:27.488Z,14.60
2023-08-26T06:13:54.459Z,14.70
2023-08-26T06:16:21.626Z,14.70
2023-08-26T06:18:48.857Z,14.70
2023-08-26T06:21:16.263Z,14.80
2023-08-26T06:23:43.118Z,14.80
2023-08-26T06:26:10.111Z,14.80
2023-08-26T06:28:39.143Z,14.90
2023-08-26T06:31:07.548Z,14.90
2023-08-26T06:33:40.127Z,14.90
2023-08-26T06:36:09.102Z,15.00
2023-08-26T06:38:35.947Z,15.10
2023-08-26T06:41:04.675Z,15.10
2023-08-26T06:43:31.552Z,15.10
2023-08-26T06:45:59.946Z,15.20
2023-08-26T06:48:28.644Z,15.20
2023-08-26T06:50:55.524Z,15.30
2023-08-26T06:53:22.489Z,15.30
2023-08-26T06:55:50.843Z,15.40
2023-08-26T06:58:18.061Z,15.50
2023-08-26T07:00:45.187Z,15.60
2023-08-26T07:03:12.425Z,15.60
2023-08-26T07:05:39.737Z,15.70
2023-08-26T07:08:06.938Z,15.80
2023-08-26T07:10:33.885Z,15.80
2023-08-26T07:13:00.786Z,15.80
2023-08-26T07:15:27.673Z,15.90
2023-08-26T07:17:55.615Z,16.00
2023-08-26T07:20:22.813Z,16.00
2023-08-26T07:22:49.791Z,16.10
2023-08-26T07:25:18.859Z,16.10
2023-08-26T07:27:46.698Z,16.10
2023-08-26T07:30:14.916Z,16.20
2023-08-26T07:32:42.792Z,16.20
2023-08-26T07:35:11.012Z,16.20
2023-08-26T07:37:38.330Z,16.30
2023-08-26T07:40:08.867Z,16.40
2023-08-26T07:42:36.620Z,16.30
2023-08-26T07:45:04.154Z,16.30
2023-08-26T07:50:01.149Z,16.50
2023-08-26T07:52:29.979Z,16.50
2023-08-26T07:54:57.366Z,16.60
2023-08-26T07:57:24.238Z,16.60
2023-08-26T07:59:51.166Z,16.70
2023-08-26T08:02:18.743Z,16.70
2023-08-26T08:04:46.084Z,16.80
2023-08-26T08:07:12.902Z,16.80
2023-08-26T08:09:40.557Z,16.90
2023-08-26T08:12:09.500Z,16.90
2023-08-26T08:14:36.507Z,16.90
2023-08-26T08:17:04.336Z,17.00
2023-08-26T08:19:31.500Z,17.10
2023-08-26T08:21:58.378Z,17.10
2023-08-26T08:24:25.280Z,17.20
2023-08-26T08:26:52.231Z,17.30
2023-08-26T08:29:19.180Z,17.30
2023-08-26T08:31:46.119Z,17.40
2023-08-26T08:34:13.052Z,17.40
2023-08-26T08:36:39.923Z,17.40
2023-08-26T08:39:07.404Z,17.40
2023-08-26T08:41:37.491Z,17.40
2023-08-26T08:44:11.742Z,17.50
2023-08-26T08:46:40.085Z,17.60
2023-08-26T08:49:07.575Z,17.70
2023-08-26T08:51:38.106Z,17.80
2023-08-26T08:54:05.841Z,17.80
2023-08-26T08:56:35.714Z,17.90
2023-08-26T08:59:05.385Z,17.90
2023-08-26T09:01:32.352Z,18.00
2023-08-26T09:03:59.228Z,18.20
2023-08-26T09:06:26.745Z,18.40
2023-08-26T09:08:55.040Z,18.50
2023-08-26T09:11:22.017Z,18.50
2023-08-26T09:13:48.962Z,18.60
2023-08-26T09:16:15.923Z,18.60
2023-08-26T09:18:42.879Z,18.70
2023-08-26T09:21:11.570Z,18.80
2023-08-26T09:23:43.456Z,18.90
2023-08-26T09:26:10.839Z,19.00
2023-08-26T09:28:38.586Z,19.10
2023-08-26T09:31:09.157Z,19.10
2023-08-26T09:33:36.125Z,19.30
2023-08-26T09:38:45.265Z,19.60
2023-08-26T09:41:12.724Z,19.80
2023-08-26T09:43:44.957Z,19.80
2023-08-26T09:46:22.112Z,19.70
2023-08-26T09:48:50.150Z,19.60
2023-08-26T09:51:30.990Z,19.70
2023-08-26T09:53:59.171Z,19.80
2023-08-26T09:56:27.821Z,19.70
2023-08-26T09:58:56.401Z,20.00
2023-08-26T10:01:24.702Z,20.40
2023-08-26T10:04:01.494Z,20.50
2023-08-26T10:06:30.559Z,20.80
2023-08-26T10:09:06.529Z,20.60
2023-08-26T10:11:39.773Z,20.80
2023-08-26T10:14:14.282Z,21.20
2023-08-26T10:16:42.749Z,21.40
2023-08-26T10:19:10.052Z,21.80
2023-08-26T10:21:37.425Z,21.90
2023-08-26T10:24:06.012Z,21.80
2023-08-26T10:26:33.687Z,21.70
2023-08-26T10:29:01.046Z,21.80
2023-08-26T10:31:36.745Z,22.00
2023-08-26T10:34:09.506Z,21.80
2023-08-26T10:36:41.244Z,22.20
2023-08-26T10:39:16.920Z,22.40
2023-08-26T10:42:14.275Z,22.30
2023-08-26T10:44:43.816Z,21.90
2023-08-26T10:47:11.492Z,21.90
2023-08-26T10:49:38.785Z,21.90
2023-08-26T10:52:32.889Z,22.10
2023-08-26T10:55:14.026Z,22.30
2023-08-26T10:58:09.701Z,22.60
2023-08-26T11:00:39.111Z,22.80
2023-08-26T11:03:10.882Z,22.90
2023-08-26T11:05:38.691Z,22.90
2023-08-26T11:08:06.581Z,22.90
2023-08-26T11:10:35.781Z,22.90
2023-08-26T11:13:04.929Z,23.00
2023-08-26T11:15:37.125Z,22.80
2023-08-26T11:18:08.608Z,22.90
2023-08-26T11:20:36.794Z,23.00
2023-08-26T11:23:05.199Z,23.10
2023-08-26T11:25:33.830Z,23.10
2023-08-26T11:28:11.726Z,23.10
2023-08-26T11:30:43.543Z,23.00
2023-08-26T11:33:13.540Z,23.20
2023-08-26T11:35:44.995Z,23.30
2023-08-26T11:38:13.371Z,23.20
2023-08-26T11:40:41.236Z,23.20
2023-08-26T11:43:08.236Z,23.10
2023-08-26T11:45:35.923Z,23.10
2023-08-26T11:48:03.723Z,23.10
2023-08-26T11:50:32.495Z,23.10
2023-08-26T11:53:03.995Z,23.00
2023-08-26T11:55:32.462Z,23.10
2023-08-26T11:58:01.282Z,23.20
2023-08-26T12:00:29.118Z,23.40
2023-08-26T12:03:04.771Z,23.30
2023-08-26T12:05:45.681Z,23.30
2023-08-26T12:08:21.078Z,23.30
2023-08-26T12:10:53.339Z,23.30
2023-08-26T12:13:21.057Z,23.50
2023-08-26T12:15:48.395Z,23.50
2023-08-26T12:18:16.174Z,23.40
2023-08-26T12:20:47.834Z,23.20
2023-08-26T12:23:19.074Z,23.30
2023-08-26T12:25:46.306Z,23.30
2023-08-26T12:28:19.332Z,23.40
2023-08-26T12:30:48.002Z,23.40
2023-08-26T12:33:24.491Z,23.50
2023-08-26T12:35:54.603Z,23.60
2023-08-26T12:38:24.748Z,23.70
2023-08-26T12:40:52.183Z,23.60
2023-08-26T12:43:22.551Z,23.60
2023-08-26T12:45:50.505Z,23.80
2023-08-26T12:48:31.454Z,24.00
2023-08-26T12:51:00.825Z,24.20
2023-08-26T12:53:27.743Z,24.30
2023-08-26T12:55:54.641Z,24.20
2023-08-26T12:58:27.956Z,24.30
2023-08-26T13:00:54.903Z,24.30
2023-08-26T13:03:22.009Z,24.20
2023-08-26T13:05:53.148Z,24.30
2023-08-26T13:08:20.127Z,24.50
2023-08-26T13:10:46.950Z,24.70
2023-08-26T13:13:13.925Z,24.80
2023-08-26T13:15:42.627Z,25.00
2023-08-26T13:18:10.460Z,25.00
2023-08-26T13:20:41.265Z,24.90
2023-08-26T13:23:10.366Z,24.60
2023-08-26T13:25:38.226Z,24.70
2023-08-26T13:28:06.542Z,24.90
2023-08-26T13:30:33.926Z,25.00
2023-08-26T13:33:01.002Z,25.20
2023-08-26T13:35:27.892Z,25.00
2023-08-26T13:37:55.040Z,24.80
2023-08-26T13:40:22.059Z,24.60
2023-08-26T13:42:50.047Z,24.50
2023-08-26T13:45:17.023Z,24.50
2023-08-26T13:47:44.060Z,24.60
2023-08-26T13:50:11.211Z,24.80
2023-08-26T13:52:38.054Z,24.70
2023-08-26T13:55:07.087Z,24.70
2023-08-26T13:57:35.740Z,24.80
2023-08-26T14:00:02.730Z,24.80
2023-08-26T14:02:39.405Z,24.70
2023-08-26T14:05:08.432Z,24.60
2023-08-26T14:07:35.354Z,24.60
2023-08-26T14:10:02.229Z,24.70
2023-08-26T14:12:29.742Z,24.70
2023-08-26T14:14:56.744Z,24.70
2023-08-26T14:17:23.553Z,24.70
2023-08-26T14:19:50.552Z,24.70
2023-08-26T14:22:17.344Z,24.90
2023-08-26T14:24:48.795Z,24.90
2023-08-26T14:27:17.068Z,25.00
2023-08-26T14:29:44.105Z,25.10
2023-08-26T14:32:10.983Z,25.40
2023-08-26T14:34:37.918Z,25.50
2023-08-26T14:37:04.942Z,25.00
2023-08-26T14:39:31.989Z,24.70
2023-08-26T14:41:58.860Z,24.50
2023-08-26T14:44:25.730Z,24.50
2023-08-26T14:46:52.643Z,24.70
2023-08-26T14:49:19.446Z,25.00
2023-08-26T14:51:46.301Z,25.00
2023-08-26T14:54:13.408Z,25.20
2023-08-26T14:56:40.306Z,25.10
2023-08-26T14:59:07.142Z,24.80
2023-08-26T15:01:34.056Z,24.70
2023-08-26T15:04:00.979Z,24.60
2023-08-26T15:06:28.142Z,24.60
2023-08-26T15:08:55.196Z,24.70
2023-08-26T15:11:22.205Z,24.90
2023-08-26T15:13:49.358Z,25.20
2023-08-26T15:16:17.430Z,25.50
2023-08-26T15:18:44.537Z,25.70
2023-08-26T15:21:11.753Z,25.70
2023-08-26T15:23:38.923Z,25.60
2023-08-26T15:26:06.184Z,25.70
2023-08-26T15:28:33.243Z,25.80
2023-08-26T15:31:00.279Z,25.80
2023-08-26T15:33:27.416Z,25.90
2023-08-26T15:40:25.759Z,26.20
2023-08-26T15:42:54.892Z,26.10
2023-08-26T15:45:22.032Z,26.00
2023-08-26T15:47:48.965Z,25.90
2023-08-26T15:50:15.743Z,25.70
2023-08-26T15:52:42.566Z,25.60
2023-08-26T15:55:09.767Z,25.60
2023-08-26T15:57:36.518Z,25.50
2023-08-26T16:00:04.582Z,25.50
2023-08-26T16:02:34.965Z,25.50
2023-08-26T16:05:02.744Z,25.60
2023-08-26T16:07:30.247Z,25.60
2023-08-26T16:09:57.138Z,25.40
2023-08-26T16:12:23.897Z,25.30
2023-08-26T16:14:50.918Z,25.40
2023-08-26T16:17:17.679Z,25.50
2023-08-26T16:19:44.436Z,25.40
2023-08-26T16:22:11.217Z,25.40
2023-08-26T16:24:37.998Z,25.40
2023-08-26T16:27:05.069Z,25.50
2023-08-26T16:29:31.836Z,25.30
2023-08-26T16:31:58.618Z,25.30
2023-08-26T16:34:25.445Z,25.20
2023-08-26T16:36:52.214Z,25.20
2023-08-26T16:39:19.373Z,25.10
2023-08-26T16:41:46.183Z,24.70
2023-08-26T16:44:12.944Z,24.40
2023-08-26T16:46:40.076Z,24.20
2023-08-26T16:49:06.883Z,24.10
2023-08-26T16:51:33.634Z,23.90
2023-08-26T16:54:00.428Z,23.70
2023-08-26T16:56:28.850Z,23.70
2023-08-26T16:58:55.695Z,23.60
2023-08-26T17:01:23.205Z,23.50
2023-08-26T17:03:50.073Z,23.40
2023-08-26T17:06:16.994Z,23.30
2023-08-26T17:08:43.787Z,23.30
2023-08-26T17:11:10.784Z,23.30
2023-08-26T17:13:37.564Z,23.00
2023-08-26T17:16:06.634Z,22.90
2023-08-26T17:18:33.446Z,22.80
2023-08-26T17:21:00.339Z,22.70
2023-08-26T17:23:27.288Z,22.60
2023-08-26T17:25:54.134Z,22.40
2023-08-26T17:28:21.048Z,22.30
2023-08-26T17:30:47.960Z,22.20
2023-08-26T17:33:14.776Z,22.10
2023-08-26T17:35:41.536Z,22.00
2023-08-26T17:38:08.295Z,21.90
2023-08-26T17:40:35.079Z,21.80
2023-08-26T17:43:01.904Z,21.70
2023-08-26T17:45:30.572Z,21.70
2023-08-26T17:47:57.389Z,21.60
2023-08-26T17:50:24.232Z,21.50
2023-08-26T17:52:51.343Z,21.50
2023-08-26T17:55:18.239Z,21.40
2023-08-26T17:57:46.149Z,21.30
2023-08-26T18:00:13.313Z,21.20
2023-08-26T18:02:40.142Z,21.10
2023-08-26T18:05:07.251Z,21.00
2023-08-26T18:07:33.948Z,20.90
2023-08-26T18:10:00.729Z,20.80
2023-08-26T18:12:27.438Z,20.70
2023-08-26T18:14:54.160Z,20.70
2023-08-26T18:17:20.852Z,20.60
2023-08-26T18:19:47.623Z,20.50
2023-08-26T18:22:14.545Z,20.50
2023-08-26T18:24:41.358Z,20.50
2023-08-26T18:27:08.133Z,20.40
2023-08-26T18:29:41.605Z,20.20
2023-08-26T18:32:09.070Z,20.20
2023-08-26T18:34:36.111Z,20.10
2023-08-26T18:37:03.072Z,20.00
2023-08-26T18:39:30.948Z,19.90
2023-08-26T18:41:57.728Z,19.80
2023-08-26T18:44:24.525Z,19.70
2023-08-26T18:46:51.260Z,19.60
2023-08-26T18:49:18.051Z,19.50
2023-08-26T18:51:44.911Z,19.50
2023-08-26T18:54:13.306Z,19.40
2023-08-26T18:56:40.156Z,19.40
2023-08-26T18:59:06.949Z,19.20
2023-08-26T19:01:34.879Z,19.10
2023-08-26T19:04:01.679Z,18.90
2023-08-26T19:06:28.484Z,18.90
2023-08-26T19:08:55.319Z,18.80
2023-08-26T19:11:22.122Z,18.80
2023-08-26T19:13:48.957Z,18.70
2023-08-26T19:16:15.874Z,18.70
2023-08-26T19:18:42.999Z,18.80
2023-08-26T19:21:09.717Z,18.80
2023-08-26T19:23:36.557Z,18.80
2023-08-26T19:26:03.473Z,18.70
2023-08-26T19:28:30.282Z,18.70
2023-08-26T19:30:57.184Z,18.60
2023-08-26T19:33:24.008Z,18.60
2023-08-26T19:35:50.825Z,18.60
2023-08-26T19:38:17.644Z,18.50
2023-08-26T19:40:44.454Z,18.40
2023-08-26T19:43:11.578Z,18.30
2023-08-26T19:45:40.076Z,18.20
2023-08-26T19:48:07.485Z,18.20
2023-08-26T19:50:39.898Z,18.20
2023-08-26T19:53:07.455Z,18.10
2023-08-26T19:55:34.264Z,18.10
2023-08-26T19:58:01.101Z,18.00
2023-08-26T20:00:29.872Z,18.00
2023-08-26T20:02:57.297Z,18.00
2023-08-26T20:05:24.162Z,17.90
2023-08-26T20:07:51.053Z,17.90
2023-08-26T20:10:18.539Z,17.80
2023-08-26T20:12:48.637Z,17.80
2023-08-26T20:15:15.581Z,17.70
2023-08-26T20:17:42.575Z,17.70
2023-08-26T20:20:10.081Z,17.60
2023-08-26T20:22:38.460Z,17.50
2023-08-26T20:25:06.887Z,17.50
2023-08-26T20:27:34.411Z,17.40
2023-08-26T20:30:01.279Z,17.30
2023-08-26T20:32:28.936Z,17.30
2023-08-26T20:34:56.293Z,17.20
2023-08-26T20:37:24.169Z,17.20
2023-08-26T20:39:51.194Z,17.10
2023-08-26T20:42:18.051Z,17.10
2023-08-26T20:44:45.107Z,17.00
2023-08-26T20:47:12.195Z,17.00
2023-08-26T20:49:39.174Z,16.90
2023-08-26T20:52:06.243Z,16.90
2023-08-26T20:54:33.277Z,17.00
2023-08-26T20:57:00.135Z,16.90
2023-08-26T20:59:27.060Z,17.00
2023-08-26T21:01:54.008Z,17.10
2023-08-26T21:04:21.057Z,17.10
2023-08-26T21:06:48.001Z,17.20
2023-08-26T21:09:14.876Z,17.30
2023-08-26T21:11:41.789Z,17.30
2023-08-26T21:14:09.194Z,17.30
2023-08-26T21:16:36.048Z,17.20
2023-08-26T21:19:04.374Z,17.10
2023-08-26T21:21:31.447Z,17.00
2023-08-26T21:23:58.337Z,16.90
2023-08-26T21:26:25.260Z,16.80
2023-08-26T21:28:52.155Z,16.70
2023-08-26T21:31:19.164Z,16.60
2023-08-26T21:33:46.474Z,16.50
2023-08-26T21:36:13.315Z,16.50
2023-08-26T21:38:40.194Z,16.40
2023-08-26T21:41:07.198Z,16.40
2023-08-26T21:43:34.097Z,16.30
2023-08-26T21:46:01.218Z,16.20
2023-08-26T21:48:28.828Z,16.20
2023-08-26T21:50:55.796Z,16.10
2023-08-26T21:53:22.915Z,16.00
2023-08-26T21:55:51.659Z,15.90
2023-08-26T21:58:18.681Z,15.90
2023-08-26T22:00:45.785Z,15.80
2023-08-26T22:03:12.682Z,15.80
2023-08-26T22:05:40.922Z,15.70
2023-08-26T22:08:08.148Z,15.70
2023-08-26T22:10:37.671Z,15.60
2023-08-26T22:13:06.728Z,15.60
2023-08-26T22:15:39.205Z,15.50
2023-08-26T22:18:07.057Z,15.40
2023-08-26T22:20:36.359Z,15.40
2023-08-26T22:23:03.264Z,15.30
2023-08-26T22:25:30.260Z,15.30
2023-08-26T22:27:57.244Z,15.20
2023-08-26T22:30:24.164Z,15.20
2023-08-26T22:32:51.118Z,15.10
2023-08-26T22:35:18.092Z,15.10
2023-08-26T22:37:45.192Z,15.10
2023-08-26T23:14:01.763Z,14.60
2023-08-26T23:16:29.279Z,14.60
2023-08-26T23:18:56.214Z,14.60
2023-08-26T23:21:23.132Z,14.60
2023-08-26T23:23:49.982Z,14.50
2023-08-26T23:26:17.459Z,14.50
2023-08-26T23:28:45.146Z,14.60
2023-08-26T23:31:12.021Z,14.50
2023-08-26T23:33:38.910Z,14.50
2023-08-26T23:36:05.810Z,14.50
2023-08-26T23:38:33.646Z,14.50
2023-08-26T23:41:01.581Z,14.50
2023-08-26T23:43:28.711Z,14.50
2023-08-26T23:45:55.825Z,14.50
2023-08-26T23:48:22.833Z,14.50
2023-08-26T23:50:49.682Z,14.50
2023-08-26T23:53:16.547Z,14.50
2023-08-26T23:55:43.379Z,14.50
2023-08-26T23:58:10.246Z,14.50
